Time;durP1;ratioP1;P1;durP2;ratioP2;P2;SDS_P1;SDS_P2;PMS_P1;PMS_P2;Temp;Humidity;BMP_temperature;BMP_pressure;BME280_temperature;BME280_humidity;BME280_pressure;Samples;Min_cycle;Max_cycle;Signal;HPM_P1;HPM_P2
2022/03/05 00:02:35;;;;;;;7.63;5.65;;;22.80;37.90;;;;;;6134503;28;81291;-69
2022/03/05 00:05:35;;;;;;;8.63;5.90;;;22.80;38.00;;;;;;6140883;28;80582;-68
2022/03/05 00:08:36;;;;;;;8.50;5.50;;;22.80;38.00;;;;;;6142163;28;80925;-68
2022/03/05 00:11:38;;;;;;;8.07;5.32;;;22.80;38.10;;;;;;6146865;28;80375;-68
2022/03/05 00:14:39;;;;;;;8.38;5.18;;;22.80;38.10;;;;;;6142950;28;80148;-68
2022/03/05 00:17:41;;;;;;;9.23;6.03;;;22.80;38.20;;;;;;6136879;28;80525;-68
2022/03/05 00:20:41;;;;;;;10.25;5.60;;;22.80;37.90;;;;;;6140925;28;80428;-67
2022/03/05 00:23:42;;;;;;;9.40;5.93;;;22.80;37.90;;;;;;6141784;28;80472;-67
2022/03/05 00:26:42;;;;;;;10.10;6.05;;;22.80;37.80;;;;;;6142598;28;81023;-67
2022/03/05 00:29:44;;;;;;;9.63;6.13;;;22.70;37.90;;;;;;6132540;28;81089;-67
2022/03/05 00:32:46;;;;;;;9.68;6.35;;;22.70;37.90;;;;;;6124851;28;81040;-68
2022/03/05 00:35:46;;;;;;;9.30;5.80;;;22.70;37.90;;;;;;6123033;28;82096;-68
2022/03/05 00:38:47;;;;;;;9.93;6.18;;;22.70;38.00;;;;;;6131881;28;80174;-69
2022/03/05 00:41:47;;;;;;;8.70;5.88;;;22.70;38.10;;;;;;6133617;28;81496;-68
2022/03/05 00:44:48;;;;;;;9.35;5.75;;;22.70;38.00;;;;;;6133083;28;80620;-68
2022/03/05 00:47:49;;;;;;;10.15;6.32;;;22.70;38.10;;;;;;6131168;28;83340;-68
2022/03/05 00:50:49;;;;;;;9.07;5.78;;;22.70;38.10;;;;;;6132103;28;80267;-68
2022/03/05 00:53:50;;;;;;;9.23;5.95;;;22.70;38.30;;;;;;6117605;28;82913;-68
2022/03/05 00:56:51;;;;;;;8.05;5.63;;;22.70;38.30;;;;;;6133938;28;83313;-68
2022/03/05 00:59:51;;;;;;;10.02;6.15;;;22.70;38.50;;;;;;6134444;28;80406;-69
2022/03/05 01:02:52;;;;;;;11.00;7.07;;;22.70;38.40;;;;;;6133754;28;82181;-69
2022/03/05 01:05:53;;;;;;;8.02;5.50;;;22.70;38.20;;;;;;6137152;28;81006;-69
2022/03/05 01:08:54;;;;;;;10.45;6.25;;;22.70;38.40;;;;;;6131158;28;80171;-69
2022/03/05 01:11:54;;;;;;;8.98;6.05;;;22.70;38.40;;;;;;6140071;28;80512;-68
2022/03/05 01:14:55;;;;;;;8.73;5.97;;;22.70;38.40;;;;;;6145837;28;80380;-69
2022/03/05 01:17:55;;;;;;;10.43;6.32;;;22.70;38.20;;;;;;6147015;28;82598;-68
2022/03/05 01:20:56;;;;;;;9.63;5.75;;;22.70;38.20;;;;;;6145094;28;80340;-68
2022/03/05 01:23:56;;;;;;;8.60;5.88;;;22.70;38.30;;;;;;6132056;28;81691;-69
2022/03/05 01:26:57;;;;;;;10.80;6.30;;;22.70;38.30;;;;;;6132108;28;80497;-68
2022/03/05 01:29:57;;;;;;;10.27;6.22;;;22.70;38.60;;;;;;6134256;28;80716;-68
2022/03/05 01:32:58;;;;;;;10.90;6.63;;;22.70;39.10;;;;;;6128342;28;80767;-69
2022/03/05 01:35:58;;;;;;;10.40;6.72;;;22.70;38.50;;;;;;6127584;28;81834;-69
2022/03/05 01:38:59;;;;;;;11.98;6.95;;;22.70;38.50;;;;;;6133633;28;80531;-69
2022/03/05 01:42:01;;;;;;;9.73;6.45;;;22.70;38.60;;;;;;6132720;28;82053;-69
2022/03/05 01:45:01;;;;;;;11.90;6.53;;;22.70;38.70;;;;;;6134283;28;81620;-69
2022/03/05 01:48:02;;;;;;;10.10;6.38;;;22.70;38.80;;;;;;6132031;28;80689;-69
2022/03/05 01:51:02;;;;;;;11.07;6.50;;;22.70;38.70;;;;;;6133125;28;80315;-67
2022/03/05 01:54:03;;;;;;;11.38;7.03;;;22.70;38.60;;;;;;6138490;28;80521;-68
2022/03/05 01:57:03;;;;;;;10.18;6.35;;;22.70;38.70;;;;;;6139957;28;80733;-67
2022/03/05 02:00:04;;;;;;;9.75;6.30;;;22.70;38.70;;;;;;6133820;28;80637;-67
2022/03/05 02:03:12;;;;;;;14.88;7.72;;;22.70;38.70;;;;;;6140642;28;80522;-68
2022/03/05 02:06:12;;;;;;;10.82;7.28;;;22.70;38.40;;;;;;6136012;28;81685;-68
2022/03/05 02:09:13;;;;;;;11.38;6.88;;;22.60;38.50;;;;;;6137326;28;81479;-69
2022/03/05 02:12:13;;;;;;;12.40;7.72;;;22.60;38.40;;;;;;6132465;28;80544;-69
2022/03/05 02:15:15;;;;;;;10.20;6.47;;;22.70;38.60;;;;;;6135510;28;80755;-68
2022/03/05 02:18:16;;;;;;;10.02;6.68;;;22.60;38.60;;;;;;6139380;28;85088;-67
2022/03/05 02:21:17;;;;;;;9.10;6.15;;;22.60;38.50;;;;;;6147303;28;80469;-67
2022/03/05 02:24:31;;;;;;;8.90;6.20;;;22.60;38.60;;;;;;6144206;28;80418;-67
2022/03/05 02:27:32;;;;;;;11.00;6.95;;;22.70;38.50;;;;;;6132565;28;80592;-67
2022/03/05 02:30:32;;;;;;;10.77;6.68;;;22.60;38.30;;;;;;6132124;28;80409;-67
2022/03/05 02:33:33;;;;;;;11.77;7.65;;;22.60;38.50;;;;;;6147044;28;80529;-68
2022/03/05 02:36:33;;;;;;;12.02;7.13;;;22.60;38.40;;;;;;6139663;28;80610;-69
2022/03/05 02:39:34;;;;;;;11.02;7.35;;;22.60;38.60;;;;;;6137462;28;80222;-68
2022/03/05 02:42:34;;;;;;;10.95;7.07;;;22.70;38.50;;;;;;6134310;28;80611;-68
2022/03/05 02:45:35;;;;;;;8.55;6.53;;;22.60;38.50;;;;;;6150337;28;80428;-67
2022/03/05 02:48:36;;;;;;;11.63;7.28;;;22.60;38.60;;;;;;6136891;28;80544;-67
2022/03/05 02:51:36;;;;;;;12.15;6.95;;;22.60;38.60;;;;;;6129643;28;81962;-67
2022/03/05 02:54:37;;;;;;;11.65;7.10;;;22.60;38.50;;;;;;6135054;28;80946;-69
2022/03/05 02:57:37;;;;;;;10.88;7.60;;;22.60;38.50;;;;;;6134863;28;81342;-68
2022/03/05 03:00:38;;;;;;;11.70;7.13;;;22.60;38.60;;;;;;6135020;28;80499;-68
2022/03/05 03:03:38;;;;;;;10.23;7.40;;;22.60;38.60;;;;;;6135203;28;80527;-68
2022/03/05 03:06:39;;;;;;;11.68;7.28;;;22.60;38.50;;;;;;6136072;28;81588;-68
2022/03/05 03:09:39;;;;;;;9.23;6.10;;;22.60;38.60;;;;;;6135886;28;80998;-68
2022/03/05 03:12:40;;;;;;;10.95;7.10;;;22.60;38.60;;;;;;6133223;28;80145;-69
2022/03/05 03:15:40;;;;;;;12.02;7.25;;;22.60;38.60;;;;;;6140691;28;81881;-69
2022/03/05 03:18:41;;;;;;;11.20;7.22;;;22.60;39.30;;;;;;6139328;28;87365;-69
2022/03/05 03:21:41;;;;;;;8.85;6.45;;;22.60;38.80;;;;;;6134741;28;80112;-68
2022/03/05 03:24:42;;;;;;;14.05;6.55;;;22.60;38.70;;;;;;6136343;28;80911;-67
2022/03/05 03:27:42;;;;;;;10.98;6.63;;;22.60;38.70;;;;;;6135928;28;80392;-68
2022/03/05 03:30:43;;;;;;;9.80;6.90;;;22.60;39.50;;;;;;6141838;28;80508;-69
2022/03/05 03:33:43;;;;;;;11.25;6.63;;;22.60;38.70;;;;;;6138581;28;82159;-68
2022/03/05 03:36:44;;;;;;;13.00;6.82;;;22.60;38.60;;;;;;6139056;28;82807;-69
2022/03/05 03:39:44;;;;;;;9.40;6.00;;;22.60;38.70;;;;;;6133057;28;80492;-69
2022/03/05 03:42:45;;;;;;;11.50;7.68;;;22.60;38.60;;;;;;6135730;28;80860;-69
2022/03/05 03:45:45;;;;;;;12.02;6.57;;;22.60;39.20;;;;;;6135546;28;80409;-70
2022/03/05 03:48:46;;;;;;;9.73;6.18;;;22.60;38.60;;;;;;6145116;28;86603;-70
2022/03/05 03:51:46;;;;;;;10.52;6.53;;;22.60;38.70;;;;;;6133786;28;83595;-69
2022/03/05 03:54:47;;;;;;;11.68;7.07;;;22.60;38.70;;;;;;6147261;28;80870;-69
2022/03/05 03:57:47;;;;;;;8.98;5.55;;;22.60;38.80;;;;;;6135063;28;80998;-69
2022/03/05 04:00:48;;;;;;;10.57;6.85;;;22.50;38.60;;;;;;6135770;28;80872;-69
2022/03/05 04:03:48;;;;;;;9.60;6.10;;;22.60;38.70;;;;;;6125670;28;80362;-69
2022/03/05 04:10:09;;;;;;;11.13;6.63;;;22.50;38.90;;;;;;6144574;28;81915;-70
2022/03/05 04:13:10;;;;;;;10.27;6.35;;;22.60;39.10;;;;;;6140200;28;81656;-69
2022/03/05 04:16:10;;;;;;;11.80;7.10;;;22.60;38.50;;;;;;6147132;28;80835;-69
2022/03/05 04:19:11;;;;;;;9.82;6.68;;;22.60;38.10;;;;;;6136676;28;80458;-68
2022/03/05 04:22:11;;;;;;;11.18;7.20;;;22.60;37.60;;;;;;6134847;28;80899;-67
2022/03/05 04:25:12;;;;;;;12.00;7.40;;;22.70;37.30;;;;;;6133523;28;81162;-67
2022/03/05 04:28:13;;;;;;;12.50;8.00;;;22.70;36.90;;;;;;6143628;28;80457;-66
2022/03/05 04:31:13;;;;;;;12.20;7.45;;;22.80;36.70;;;;;;6138111;28;81459;-68
2022/03/05 04:34:14;;;;;;;13.02;6.93;;;22.80;36.60;;;;;;6134519;28;81119;-68
2022/03/05 04:37:14;;;;;;;10.13;6.25;;;22.90;36.60;;;;;;6132257;28;80380;-68
2022/03/05 04:40:15;;;;;;;11.43;6.57;;;22.90;36.60;;;;;;6132499;28;82323;-67
2022/03/05 04:43:15;;;;;;;9.55;6.30;;;23.00;36.70;;;;;;6132975;28;81142;-67
2022/03/05 04:46:16;;;;;;;10.45;6.20;;;23.00;36.60;;;;;;6144465;28;80696;-68
2022/03/05 04:49:16;;;;;;;10.93;6.88;;;23.00;36.60;;;;;;6134302;28;81177;-66
2022/03/05 04:52:17;;;;;;;11.45;6.35;;;23.00;36.60;;;;;;6134295;28;80726;-70
2022/03/05 04:55:17;;;;;;;11.85;7.43;;;23.10;36.50;;;;;;6134905;28;80391;-67
2022/03/05 04:58:18;;;;;;;10.85;6.35;;;23.10;36.30;;;;;;6134737;28;80451;-67
2022/03/05 05:01:19;;;;;;;11.18;6.97;;;23.10;36.30;;;;;;6131333;28;81065;-67
2022/03/05 05:04:19;;;;;;;11.02;7.55;;;23.20;36.30;;;;;;6134582;28;80008;-67
2022/03/05 05:07:20;;;;;;;12.15;7.05;;;23.20;36.30;;;;;;6134172;28;80143;-67
2022/03/05 05:10:20;;;;;;;12.32;7.72;;;23.20;36.40;;;;;;6133246;28;80606;-66
2022/03/05 05:13:21;;;;;;;12.40;7.13;;;23.20;36.50;;;;;;6134190;28;80813;-67
2022/03/05 05:16:21;;;;;;;10.57;6.55;;;23.20;36.70;;;;;;6125210;28;81421;-67
2022/03/05 05:19:27;;;;;;;8.85;6.40;;;23.20;36.80;;;;;;6133256;28;80517;-67
2022/03/05 05:22:29;;;;;;;9.98;5.95;;;23.20;36.90;;;;;;6118430;28;80676;-66
2022/03/05 05:25:30;;;;;;;11.38;6.90;;;23.30;37.20;;;;;;6116777;28;81054;-68
2022/03/05 05:28:30;;;;;;;11.93;7.72;;;23.30;37.30;;;;;;6130389;28;80834;-69
2022/03/05 05:31:31;;;;;;;8.73;5.88;;;23.30;37.30;;;;;;6130088;28;80251;-67
2022/03/05 05:34:31;;;;;;;11.55;6.75;;;23.30;37.20;;;;;;6131382;28;80785;-63
2022/03/05 05:37:32;;;;;;;9.30;7.05;;;23.30;37.80;;;;;;6131469;28;81741;-65
2022/03/05 05:40:34;;;;;;;10.13;6.60;;;23.30;37.00;;;;;;6120747;28;80938;-62
2022/03/05 05:43:34;;;;;;;13.15;7.03;;;23.40;37.00;;;;;;6116871;28;80342;-66
2022/03/05 05:46:35;;;;;;;10.40;6.70;;;23.40;36.80;;;;;;6127966;28;81399;-69
2022/03/05 05:49:36;;;;;;;12.15;6.82;;;23.40;36.60;;;;;;6137316;28;81482;-68
2022/03/05 05:52:38;;;;;;;10.07;6.72;;;23.40;37.70;;;;;;6154611;28;80230;-68
2022/03/05 05:55:38;;;;;;;8.77;6.07;;;23.10;39.20;;;;;;6135500;28;80680;-68
2022/03/05 05:58:39;;;;;;;11.02;6.80;;;23.00;39.80;;;;;;6133117;28;81129;-67
2022/03/05 06:01:39;;;;;;;12.98;7.10;;;23.00;40.50;;;;;;6124652;28;80420;-67
2022/03/05 06:04:40;;;;;;;9.80;6.25;;;22.80;41.10;;;;;;6132530;28;81692;-63
2022/03/05 06:07:40;;;;;;;10.65;6.45;;;22.80;41.30;;;;;;6133137;28;81002;-66
2022/03/05 06:10:41;;;;;;;11.02;6.70;;;22.80;41.90;;;;;;6133947;28;80228;-62
2022/03/05 06:13:41;;;;;;;10.00;6.35;;;22.70;42.30;;;;;;6133869;28;80655;-67
2022/03/05 06:16:43;;;;;;;11.82;7.50;;;22.60;42.30;;;;;;6139292;28;80245;-68
2022/03/05 06:19:44;;;;;;;14.52;7.07;;;22.70;42.70;;;;;;6135758;28;80869;-67
2022/03/05 06:22:44;;;;;;;12.65;6.97;;;22.70;42.80;;;;;;6146176;28;82195;-64
2022/03/05 06:25:45;;;;;;;9.75;6.30;;;22.60;43.00;;;;;;6134956;28;81551;-65
2022/03/05 06:28:46;;;;;;;37.17;7.32;;;22.60;43.40;;;;;;6136730;28;80102;-65
2022/03/05 06:31:46;;;;;;;11.90;6.68;;;22.50;43.90;;;;;;6148619;28;80974;-67
2022/03/05 06:34:47;;;;;;;9.25;6.25;;;22.40;44.00;;;;;;6116199;28;83418;-66
2022/03/05 06:37:48;;;;;;;9.60;6.10;;;22.50;44.40;;;;;;6132246;28;81971;-66
2022/03/05 06:40:48;;;;;;;12.07;6.55;;;22.50;44.10;;;;;;6134619;28;81781;-66
2022/03/05 06:43:48;;;;;;;12.77;6.85;;;22.50;44.80;;;;;;6134436;28;81378;-65
2022/03/05 06:46:49;;;;;;;10.93;6.68;;;22.40;44.70;;;;;;6135823;28;82195;-67
2022/03/05 06:49:50;;;;;;;11.50;7.13;;;22.40;45.00;;;;;;6135001;28;81494;-66
2022/03/05 06:52:50;;;;;;;14.05;7.03;;;22.40;44.80;;;;;;6136445;28;80288;-65
2022/03/05 06:55:51;;;;;;;11.30;6.93;;;22.40;45.40;;;;;;6133303;28;81635;-66
2022/03/05 06:58:51;;;;;;;10.52;6.63;;;22.40;45.30;;;;;;6126822;28;80649;-65
2022/03/05 07:01:52;;;;;;;13.60;6.97;;;22.50;45.30;;;;;;6129924;28;81866;-67
2022/03/05 07:04:52;;;;;;;8.70;5.57;;;22.30;45.40;;;;;;6129472;28;80675;-67
2022/03/05 07:07:53;;;;;;;11.90;6.57;;;22.30;45.00;;;;;;6136711;28;80738;-69
2022/03/05 07:10:53;;;;;;;16.38;6.30;;;22.30;44.80;;;;;;6132881;28;80926;-68
2022/03/05 07:13:54;;;;;;;9.77;6.65;;;22.30;45.80;;;;;;6124682;28;80542;-67
2022/03/05 07:16:54;;;;;;;12.00;6.75;;;22.30;45.10;;;;;;6130000;28;81745;-66
2022/03/05 07:19:55;;;;;;;14.65;6.90;;;22.30;44.70;;;;;;6129571;28;81269;-69
2022/03/05 07:22:56;;;;;;;11.35;6.25;;;22.40;45.10;;;;;;6122217;28;81269;-70
2022/03/05 07:25:56;;;;;;;11.95;6.82;;;22.40;45.00;;;;;;6127364;28;81219;-69
2022/03/05 07:28:57;;;;;;;11.60;6.43;;;22.40;44.80;;;;;;6120290;28;81600;-68
2022/03/05 07:31:57;;;;;;;11.57;6.30;;;22.40;44.90;;;;;;6118122;28;81667;-67
2022/03/05 07:34:58;;;;;;;10.77;7.15;;;22.40;45.10;;;;;;6117015;28;80443;-68
2022/03/05 07:37:58;;;;;;;10.55;6.80;;;22.40;45.00;;;;;;6120747;28;80646;-68
2022/03/05 07:40:59;;;;;;;10.88;7.03;;;22.40;45.30;;;;;;6127277;28;80862;-69
2022/03/05 07:44:00;;;;;;;10.63;6.20;;;22.40;45.80;;;;;;6119678;28;81519;-70
2022/03/05 07:47:00;;;;;;;10.02;6.30;;;22.50;45.70;;;;;;6120321;28;81699;-68
2022/03/05 07:50:01;;;;;;;14.05;7.70;;;22.40;45.50;;;;;;6124726;28;82020;-70
2022/03/05 07:53:02;;;;;;;15.73;7.15;;;22.40;45.60;;;;;;6118810;28;80634;-69
2022/03/05 07:56:02;;;;;;;13.20;7.40;;;22.40;45.80;;;;;;6123392;28;80999;-69
2022/03/05 07:59:03;;;;;;;11.82;6.70;;;22.50;45.60;;;;;;6124024;28;80371;-70
2022/03/05 08:02:03;;;;;;;11.13;7.45;;;22.40;45.40;;;;;;6125103;28;81414;-69
2022/03/05 08:05:04;;;;;;;23.75;6.75;;;22.40;45.30;;;;;;6141362;28;81937;-69
2022/03/05 08:08:05;;;;;;;11.50;6.28;;;22.30;44.80;;;;;;6129136;28;80580;-64
2022/03/05 08:11:05;;;;;;;11.85;5.88;;;22.30;44.60;;;;;;6120320;28;80358;-68
2022/03/05 08:14:06;;;;;;;12.70;6.40;;;22.30;44.50;;;;;;6122265;28;80682;-65
2022/03/05 08:17:07;;;;;;;14.05;6.03;;;22.20;44.20;;;;;;6126365;28;81175;-63
2022/03/05 08:20:07;;;;;;;9.73;5.93;;;22.20;44.70;;;;;;6142870;28;80604;-64
2022/03/05 08:23:08;;;;;;;13.98;5.95;;;22.10;44.60;;;;;;6138394;28;80567;-66
2022/03/05 08:26:13;;;;;;;11.52;5.60;;;22.10;44.80;;;;;;6133816;28;83544;-66
2022/03/05 08:29:13;;;;;;;9.77;5.57;;;22.20;44.60;;;;;;6137334;28;80825;-67
2022/03/05 08:32:14;;;;;;;10.60;5.72;;;22.40;44.80;;;;;;6141362;28;80253;-65
2022/03/05 08:35:14;;;;;;;9.48;5.68;;;22.30;45.00;;;;;;6144831;28;80405;-67
2022/03/05 08:38:15;;;;;;;12.63;5.78;;;22.40;44.60;;;;;;6131611;28;80680;-66
2022/03/05 08:41:15;;;;;;;13.20;5.65;;;22.40;44.40;;;;;;6122965;28;81423;-67
2022/03/05 08:44:16;;;;;;;22.23;7.55;;;22.40;44.20;;;;;;6121981;28;80494;-68
2022/03/05 08:47:16;;;;;;;26.50;8.70;;;22.40;44.30;;;;;;6133645;28;81049;-64
2022/03/05 08:50:17;;;;;;;26.70;7.03;;;22.30;44.40;;;;;;6132376;28;80562;-63
2022/03/05 08:53:17;;;;;;;22.98;6.68;;;22.40;44.00;;;;;;6136328;28;80478;-64
2022/03/05 08:56:19;;;;;;;19.42;7.03;;;22.30;44.40;;;;;;6135919;28;80456;-61
2022/03/05 08:59:19;;;;;;;22.75;7.25;;;22.40;44.50;;;;;;6133212;28;83370;-66
2022/03/05 09:02:19;;;;;;;15.93;6.25;;;22.40;44.30;;;;;;6132984;28;80638;-65
2022/03/05 09:05:20;;;;;;;18.27;5.95;;;22.40;44.30;;;;;;6125795;28;81002;-66
2022/03/05 09:08:21;;;;;;;14.27;7.00;;;22.50;44.30;;;;;;6132505;28;82302;-64
2022/03/05 09:11:21;;;;;;;18.42;5.78;;;22.50;44.20;;;;;;6140157;28;80197;-62
2022/03/05 09:14:22;;;;;;;11.63;5.40;;;22.60;44.40;;;;;;6136184;28;80737;-63
2022/03/05 09:17:23;;;;;;;10.18;4.97;;;22.70;44.70;;;;;;6128690;28;80588;-65
2022/03/05 09:20:23;;;;;;;10.98;5.03;;;22.70;45.60;;;;;;6141542;28;80695;-62
2022/03/05 09:23:24;;;;;;;18.08;5.00;;;22.80;46.00;;;;;;6134962;28;81711;-62
2022/03/05 09:26:24;;;;;;;8.10;3.95;;;22.80;45.90;;;;;;6132799;28;80312;-62
2022/03/05 09:29:25;;;;;;;10.45;4.93;;;22.90;45.70;;;;;;6135225;28;80549;-65
2022/03/05 09:32:25;;;;;;;8.32;4.68;;;23.00;45.60;;;;;;6134104;28;80647;-66
2022/03/05 09:35:26;;;;;;;11.82;4.97;;;23.00;44.90;;;;;;6118313;28;80664;-68
2022/03/05 09:38:26;;;;;;;10.68;4.05;;;23.00;44.80;;;;;;6123136;28;80515;-68
2022/03/05 09:41:27;;;;;;;10.13;4.75;;;23.00;44.40;;;;;;6123739;28;80592;-68
2022/03/05 09:44:27;;;;;;;8.85;4.55;;;23.10;44.10;;;;;;6114965;28;83953;-67
2022/03/05 09:47:28;;;;;;;10.00;4.30;;;23.00;44.20;;;;;;6115648;28;80751;-67
2022/03/05 09:50:29;;;;;;;8.23;4.13;;;23.10;43.60;;;;;;6117413;28;80581;-68
2022/03/05 09:53:30;;;;;;;9.50;4.35;;;23.10;43.30;;;;;;6139698;28;81226;-61
2022/03/05 09:56:30;;;;;;;9.07;4.00;;;23.20;43.20;;;;;;6136593;28;80397;-61
2022/03/05 09:59:31;;;;;;;8.95;4.03;;;23.20;42.80;;;;;;6139043;28;80265;-62
2022/03/05 10:02:32;;;;;;;10.38;4.75;;;23.20;42.80;;;;;;6137177;28;81521;-63
2022/03/05 10:05:32;;;;;;;7.93;4.45;;;23.20;42.60;;;;;;6142869;28;80629;-63
2022/03/05 10:08:33;;;;;;;12.80;4.85;;;23.20;42.40;;;;;;6135029;28;81702;-63
2022/03/05 10:11:33;;;;;;;28.00;4.95;;;23.30;42.50;;;;;;6137754;28;80593;-63
2022/03/05 10:14:34;;;;;;;12.02;4.30;;;23.20;42.30;;;;;;6149061;28;80464;-64
2022/03/05 10:17:35;;;;;;;9.93;4.03;;;23.20;42.70;;;;;;6142625;28;81030;-70
2022/03/05 10:20:35;;;;;;;13.98;4.50;;;23.20;42.30;;;;;;6129560;28;81542;-69
2022/03/05 10:23:36;;;;;;;11.00;4.38;;;23.20;42.90;;;;;;6142366;28;84188;-64
2022/03/05 10:26:37;;;;;;;11.07;4.40;;;23.20;42.90;;;;;;6134975;28;81351;-63
2022/03/05 10:29:39;;;;;;;11.57;4.20;;;23.20;42.60;;;;;;6138521;28;81138;-67
2022/03/05 10:32:40;;;;;;;10.77;4.00;;;23.10;43.50;;;;;;6138025;28;80345;-69
2022/03/05 10:35:40;;;;;;;9.57;4.05;;;23.10;43.10;;;;;;6148152;28;80947;-69
2022/03/05 10:38:41;;;;;;;11.93;3.63;;;23.10;42.90;;;;;;6144246;28;80225;-68
2022/03/05 10:41:42;;;;;;;9.10;3.72;;;23.10;42.40;;;;;;6141357;28;83278;-68
2022/03/05 10:44:42;;;;;;;12.10;3.50;;;23.20;41.60;;;;;;6136710;28;81290;-68
2022/03/05 10:47:43;;;;;;;9.77;3.40;;;23.30;40.70;;;;;;6136831;28;80104;-67
2022/03/05 10:50:43;;;;;;;8.82;3.97;;;23.40;39.90;;;;;;6136189;28;80609;-67
2022/03/05 10:53:44;;;;;;;6.50;3.60;;;23.50;38.90;;;;;;6137642;28;80362;-67
2022/03/05 10:56:44;;;;;;;6.35;3.10;;;23.50;38.30;;;;;;6135288;28;80526;-67
2022/03/05 10:59:45;;;;;;;8.48;3.40;;;23.50;37.90;;;;;;6131961;28;81214;-68
2022/03/05 11:02:45;;;;;;;6.20;3.55;;;23.50;37.40;;;;;;6133856;28;80511;-68
2022/03/05 11:05:46;;;;;;;8.25;3.00;;;23.50;37.20;;;;;;6135629;28;80246;-68
2022/03/05 11:08:46;;;;;;;9.30;3.40;;;23.50;37.90;;;;;;6136105;28;80625;-68
2022/03/05 11:11:47;;;;;;;8.23;3.15;;;23.50;37.70;;;;;;6135581;28;80479;-68
2022/03/05 11:14:47;;;;;;;6.15;3.30;;;23.50;37.50;;;;;;6130735;28;82066;-67
2022/03/05 11:17:48;;;;;;;4.22;2.75;;;23.50;37.60;;;;;;6142774;28;80521;-68
2022/03/05 11:20:49;;;;;;;4.05;2.80;;;23.50;37.70;;;;;;6134354;28;82983;-68
2022/03/05 11:23:51;;;;;;;5.30;2.92;;;23.40;37.80;;;;;;6129515;28;80292;-67
2022/03/05 11:26:51;;;;;;;7.20;3.72;;;23.40;37.90;;;;;;6134842;28;80678;-67
2022/03/05 11:29:52;;;;;;;5.13;2.65;;;23.40;38.40;;;;;;6135549;28;80678;-67
2022/03/05 11:32:52;;;;;;;7.40;2.63;;;23.40;38.30;;;;;;6136771;28;80726;-68
2022/03/05 11:35:53;;;;;;;5.43;2.70;;;23.40;38.90;;;;;;6136441;28;80408;-68
2022/03/05 11:38:53;;;;;;;5.10;2.30;;;23.30;38.30;;;;;;6134660;28;80697;-67
2022/03/05 11:41:54;;;;;;;5.95;3.17;;;23.40;38.20;;;;;;6134097;28;82405;-66
2022/03/05 11:44:54;;;;;;;4.78;2.30;;;23.30;37.70;;;;;;6137050;28;81442;-66
2022/03/05 11:47:56;;;;;;;4.63;2.50;;;23.30;37.50;;;;;;6140689;28;82145;-67
2022/03/05 11:50:56;;;;;;;5.72;2.88;;;23.30;37.20;;;;;;6122640;28;80330;-67
2022/03/05 11:53:57;;;;;;;7.78;3.53;;;23.30;37.20;;;;;;6138141;28;80716;-67
2022/03/05 11:56:57;;;;;;;4.10;2.45;;;23.20;37.00;;;;;;6136129;28;80840;-67
2022/03/05 12:00:03;;;;;;;9.35;2.90;;;23.20;37.40;;;;;;6132667;28;81689;-66
2022/03/05 12:03:12;;;;;;;9.82;3.88;;;23.20;37.40;;;;;;6130340;28;80205;-66
2022/03/05 12:06:13;;;;;;;11.48;4.90;;;23.20;37.30;;;;;;6136740;28;81503;-67
2022/03/05 12:09:13;;;;;;;11.35;3.30;;;23.20;37.90;;;;;;6137463;28;83538;-65
2022/03/05 12:12:14;;;;;;;12.45;3.92;;;23.20;37.40;;;;;;6135958;28;82496;-67
2022/03/05 12:15:14;;;;;;;10.73;3.25;;;23.20;37.50;;;;;;6134212;28;81211;-67
2022/03/05 12:18:16;;;;;;;10.23;3.50;;;23.20;37.70;;;;;;6134367;28;86582;-65
2022/03/05 12:21:17;;;;;;;7.03;3.08;;;23.20;37.80;;;;;;6132919;28;81477;-68
2022/03/05 12:24:17;;;;;;;5.07;2.60;;;23.10;37.60;;;;;;6141941;28;80817;-65
2022/03/05 12:27:18;;;;;;;9.43;3.22;;;23.10;37.50;;;;;;6133063;28;80261;-65
2022/03/05 12:30:19;;;;;;;6.03;2.92;;;23.10;37.40;;;;;;6134957;28;80783;-64
2022/03/05 12:33:19;;;;;;;8.88;2.90;;;23.10;37.10;;;;;;6134751;28;81754;-64
2022/03/05 12:36:22;;;;;;;6.32;2.90;;;23.20;36.80;;;;;;6141445;28;81516;-65
2022/03/05 12:39:22;;;;;;;9.40;3.15;;;23.20;36.60;;;;;;6129376;28;81477;-65
2022/03/05 12:42:26;;;;;;;7.82;2.97;;;23.20;36.70;;;;;;6138615;28;81987;-67
2022/03/05 12:45:27;;;;;;;7.07;3.17;;;23.20;36.90;;;;;;6135745;28;81096;-65
2022/03/05 12:48:27;;;;;;;3.63;2.55;;;23.20;36.50;;;;;;6120095;28;81702;-62
2022/03/05 12:51:28;;;;;;;8.85;2.85;;;23.20;36.50;;;;;;6125593;28;82064;-63
2022/03/05 12:54:30;;;;;;;4.20;2.42;;;23.20;36.40;;;;;;6133447;28;80646;-67
2022/03/05 12:57:31;;;;;;;5.28;2.78;;;23.10;36.60;;;;;;6132658;28;80993;-60
2022/03/05 13:00:31;;;;;;;5.38;2.53;;;23.10;36.40;;;;;;6127263;28;83378;-61
2022/03/05 13:03:32;;;;;;;9.40;2.88;;;23.20;36.60;;;;;;6134361;28;80794;-62
2022/03/05 13:06:33;;;;;;;4.93;2.70;;;23.20;36.70;;;;;;6134476;28;80274;-62
2022/03/05 13:09:34;;;;;;;6.63;2.75;;;23.20;36.40;;;;;;6131350;28;80158;-62
2022/03/05 13:12:35;;;;;;;11.23;3.65;;;23.20;36.30;;;;;;6134603;28;80236;-66
2022/03/05 13:15:36;;;;;;;15.20;4.15;;;23.20;36.70;;;;;;6134861;28;81339;-67
2022/03/05 13:18:37;;;;;;;10.27;4.03;;;23.20;38.10;;;;;;6145736;28;80521;-65
2022/03/05 13:21:37;;;;;;;11.93;4.57;;;23.10;38.70;;;;;;6133309;28;80300;-67
2022/03/05 13:24:38;;;;;;;16.88;4.18;;;23.20;38.60;;;;;;6134657;28;80258;-67
2022/03/05 13:27:38;;;;;;;15.30;3.75;;;23.20;38.60;;;;;;6133967;28;81266;-67
2022/03/05 13:30:39;;;;;;;13.88;4.07;;;23.20;38.30;;;;;;6134240;28;83298;-65
2022/03/05 13:33:41;;;;;;;13.60;3.95;;;23.20;38.10;;;;;;6132757;28;81227;-66
2022/03/05 13:36:42;;;;;;;6.50;3.38;;;23.20;38.00;;;;;;6133036;28;81481;-66
2022/03/05 13:39:42;;;;;;;6.20;3.25;;;23.20;37.90;;;;;;6127320;28;81321;-66
2022/03/05 13:42:45;;;;;;;10.30;3.88;;;23.30;37.70;;;;;;6120610;28;81581;-67
2022/03/05 13:45:46;;;;;;;6.47;3.28;;;23.20;37.70;;;;;;6130460;28;80477;-66
2022/03/05 13:48:46;;;;;;;5.43;2.80;;;23.20;37.50;;;;;;6127723;28;80966;-66
2022/03/05 13:51:47;;;;;;;11.40;3.20;;;23.30;37.50;;;;;;6129974;28;81905;-67
2022/03/05 13:54:48;;;;;;;4.28;2.88;;;23.30;37.40;;;;;;6126553;28;81373;-64
2022/03/05 13:57:54;;;;;;;6.80;3.38;;;23.30;37.30;;;;;;6124948;28;81564;-64
2022/03/05 14:00:55;;;;;;;6.43;2.58;;;23.30;37.20;;;;;;6125297;28;80646;-65
2022/03/05 14:03:56;;;;;;;5.60;2.88;;;23.40;37.20;;;;;;6127272;28;81565;-66
2022/03/05 14:06:56;;;;;;;6.05;2.78;;;23.30;37.00;;;;;;6117013;28;80704;-66
2022/03/05 14:09:57;;;;;;;8.05;2.95;;;23.30;36.90;;;;;;6132895;28;80933;-66
2022/03/05 14:12:57;;;;;;;10.05;2.72;;;23.30;36.80;;;;;;6124229;28;80593;-65
2022/03/05 14:15:58;;;;;;;8.75;2.83;;;23.30;36.60;;;;;;6120329;28;80264;-67
2022/03/05 14:18:58;;;;;;;4.82;2.92;;;23.30;36.40;;;;;;6131110;28;80805;-67
2022/03/05 14:21:59;;;;;;;11.07;3.17;;;23.30;36.30;;;;;;6138475;28;81790;-67
2022/03/05 14:24:59;;;;;;;5.45;2.60;;;23.30;36.20;;;;;;6139769;28;80502;-66
2022/03/05 14:28:00;;;;;;;4.60;2.60;;;23.30;36.10;;;;;;6137341;28;83253;-66
2022/03/05 14:31:00;;;;;;;4.57;3.05;;;23.30;36.00;;;;;;6121789;28;80387;-67
2022/03/05 14:34:02;;;;;;;4.53;2.90;;;23.20;36.00;;;;;;6143212;28;80590;-70
2022/03/05 14:37:03;;;;;;;4.50;3.05;;;23.20;36.00;;;;;;6132482;28;81407;-67
2022/03/05 14:40:03;;;;;;;7.35;3.45;;;23.20;35.90;;;;;;6125638;28;82125;-66
2022/03/05 14:43:04;;;;;;;6.50;3.38;;;23.20;35.80;;;;;;6127509;28;81161;-68
2022/03/05 14:46:04;;;;;;;5.18;3.05;;;23.20;35.30;;;;;;6122322;28;80557;-67
2022/03/05 14:49:05;;;;;;;16.30;4.18;;;23.20;35.40;;;;;;6125433;28;81261;-69
2022/03/05 14:52:05;;;;;;;6.28;3.40;;;23.10;35.30;;;;;;6127728;28;80302;-70
2022/03/05 14:55:06;;;;;;;6.22;3.10;;;23.10;35.30;;;;;;6139719;28;80483;-71
2022/03/05 14:58:06;;;;;;;41.28;18.73;;;23.10;35.30;;;;;;6128117;28;80443;-70
2022/03/05 15:01:07;;;;;;;123.72;57.13;;;23.10;35.30;;;;;;6119078;28;83247;-71
2022/03/05 15:04:08;;;;;;;197.65;91.35;;;23.10;35.40;;;;;;6119991;28;83106;-72
2022/03/05 15:07:08;;;;;;;281.92;133.93;;;23.10;35.40;;;;;;6123111;28;86171;-70
2022/03/05 15:10:09;;;;;;;260.00;119.38;;;23.10;35.40;;;;;;6130642;28;86297;-68
2022/03/05 15:13:09;;;;;;;198.27;93.40;;;23.10;35.50;;;;;;6122754;28;86316;-73
2022/03/05 15:16:10;;;;;;;280.75;129.60;;;23.10;35.60;;;;;;6134469;28;85794;-68
2022/03/05 15:19:10;;;;;;;317.55;154.10;;;23.10;35.60;;;;;;6135392;28;85601;-73
2022/03/05 15:22:11;;;;;;;338.08;165.38;;;23.10;35.60;;;;;;6145583;28;85814;-65
2022/03/05 15:25:11;;;;;;;350.63;168.82;;;23.20;35.60;;;;;;6129507;28;86699;-69
2022/03/05 15:28:12;;;;;;;277.33;134.40;;;23.30;35.50;;;;;;6134578;28;85843;-69
2022/03/05 15:31:12;;;;;;;242.57;115.28;;;23.30;35.80;;;;;;6135972;28;86658;-71
2022/03/05 15:34:13;;;;;;;182.82;88.55;;;23.10;36.70;;;;;;6127089;28;85985;-70
2022/03/05 15:37:13;;;;;;;161.38;78.50;;;23.00;37.60;;;;;;6118232;28;85376;-69